createdAt,value
2019-03-31T00:02:27.389Z,10.73
2019-03-31T00:04:56.294Z,14.53
2019-03-31T00:07:25.229Z,9.50
2019-03-31T00:09:54.195Z,12.20
2019-03-31T00:12:23.115Z,10.83
2019-03-31T00:14:52.022Z,9.17
2019-03-31T00:17:20.925Z,12.57
2019-03-31T00:19:49.829Z,11.30
2019-03-31T00:22:18.713Z,8.07
2019-03-31T00:24:47.753Z,8.63
2019-03-31T00:27:16.639Z,10.37
2019-03-31T00:29:45.518Z,8.80
2019-03-31T00:32:14.435Z,8.43
2019-03-31T00:34:43.313Z,10.50
2019-03-31T00:37:12.213Z,11.27
2019-03-31T00:39:41.054Z,8.83
2019-03-31T00:42:09.985Z,13.87
2019-03-31T00:44:38.921Z,11.63
2019-03-31T00:47:07.795Z,10.53
2019-03-31T00:49:36.739Z,11.17
2019-03-31T00:52:05.621Z,13.10
2019-03-31T00:54:34.524Z,11.20
2019-03-31T00:57:03.481Z,9.10
2019-03-31T00:59:32.409Z,9.70
2019-03-31T01:02:02.837Z,11.70
2019-03-31T01:04:33.504Z,12.30
2019-03-31T01:07:02.419Z,14.50
2019-03-31T01:09:33.253Z,11.23
2019-03-31T01:12:03.605Z,12.33
2019-03-31T01:14:32.764Z,13.70
2019-03-31T01:17:02.106Z,12.67
2019-03-31T01:19:31.343Z,11.20
2019-03-31T01:22:00.372Z,14.43
2019-03-31T01:24:29.297Z,16.73
2019-03-31T01:26:58.450Z,16.33
2019-03-31T01:29:27.387Z,12.53
2019-03-31T01:31:56.514Z,14.67
2019-03-31T01:34:25.499Z,18.20
2019-03-31T01:36:54.514Z,15.17
2019-03-31T01:39:25.041Z,17.00
2019-03-31T01:41:54.005Z,15.77
2019-03-31T01:44:23.197Z,20.07
2019-03-31T01:46:52.710Z,17.30
2019-03-31T01:49:21.773Z,17.40
2019-03-31T01:51:50.725Z,22.17
2019-03-31T01:54:19.629Z,21.93
2019-03-31T01:56:48.557Z,22.47
2019-03-31T01:59:17.421Z,22.90
2019-03-31T02:01:46.369Z,21.90
2019-03-31T02:04:15.234Z,23.83
2019-03-31T02:06:44.150Z,25.90
2019-03-31T02:09:13.037Z,22.17
2019-03-31T02:11:41.951Z,23.03
2019-03-31T02:14:10.852Z,24.00
2019-03-31T02:16:39.864Z,25.17
2019-03-31T02:19:08.827Z,23.87
2019-03-31T02:21:37.784Z,24.40
2019-03-31T02:24:06.697Z,22.40
2019-03-31T02:26:35.606Z,25.83
2019-03-31T02:29:04.562Z,23.57
2019-03-31T02:31:33.528Z,26.17
2019-03-31T02:34:02.444Z,21.23
2019-03-31T02:36:31.303Z,19.50
2019-03-31T02:39:00.255Z,18.57
2019-03-31T02:41:29.135Z,18.90
2019-03-31T02:43:58.026Z,15.97
2019-03-31T02:46:26.955Z,17.53
2019-03-31T02:48:55.823Z,18.00
2019-03-31T02:51:24.850Z,19.30
2019-03-31T02:53:54.119Z,16.20
2019-03-31T02:56:23.353Z,13.53
2019-03-31T02:58:54.266Z,14.67
2019-03-31T03:01:24.715Z,17.13
2019-03-31T03:03:54.629Z,19.23
2019-03-31T03:06:25.642Z,13.77
2019-03-31T03:08:57.001Z,16.23
2019-03-31T03:11:29.128Z,16.43
2019-03-31T03:14:00.793Z,15.67
2019-03-31T03:16:29.660Z,16.07
2019-03-31T03:18:58.699Z,15.83
2019-03-31T03:21:27.650Z,14.77
2019-03-31T03:23:56.650Z,16.43
2019-03-31T03:26:25.590Z,15.83
2019-03-31T03:28:54.469Z,14.63
2019-03-31T03:31:23.441Z,16.67
2019-03-31T03:33:52.336Z,14.77
2019-03-31T03:36:21.278Z,16.70
2019-03-31T03:38:50.452Z,16.60
2019-03-31T03:41:19.350Z,26.80
2019-03-31T03:43:55.706Z,16.43
2019-03-31T03:46:18.856Z,15.80
2019-03-31T03:48:54.090Z,15.20
2019-03-31T03:51:23.055Z,15.93
2019-03-31T03:53:51.954Z,18.27
2019-03-31T03:56:20.827Z,14.90
2019-03-31T03:58:49.758Z,18.80
2019-03-31T04:01:19.717Z,17.20
2019-03-31T04:03:48.706Z,16.20
2019-03-31T04:06:17.607Z,16.93
2019-03-31T04:08:46.528Z,16.60
2019-03-31T04:11:21.178Z,17.47
2019-03-31T04:13:48.314Z,17.43
2019-03-31T04:16:17.265Z,18.10
2019-03-31T04:18:46.171Z,13.20
2019-03-31T04:21:15.122Z,15.07
2019-03-31T04:23:44.043Z,15.67
2019-03-31T04:26:12.940Z,21.80
2019-03-31T04:28:41.859Z,16.10
2019-03-31T04:31:13.764Z,14.93
2019-03-31T04:33:51.588Z,42.93
2019-03-31T04:36:13.469Z,25.47
2019-03-31T04:38:42.441Z,31.50
2019-03-31T04:41:11.382Z,25.80
2019-03-31T04:43:40.333Z,52.10
2019-03-31T04:46:09.260Z,26.37
2019-03-31T04:48:39.858Z,27.90
2019-03-31T04:51:08.745Z,33.37
2019-03-31T04:53:37.693Z,23.23
2019-03-31T04:56:06.559Z,21.00
2019-03-31T04:58:35.419Z,21.23
2019-03-31T05:01:04.328Z,19.47
2019-03-31T05:03:42.513Z,15.43
2019-03-31T05:06:11.469Z,15.00
2019-03-31T05:08:40.300Z,19.63
2019-03-31T05:11:09.239Z,15.47
2019-03-31T05:13:38.082Z,15.47
2019-03-31T05:16:06.999Z,17.87
2019-03-31T05:18:35.861Z,18.20
2019-03-31T05:21:04.794Z,17.37
2019-03-31T05:23:33.638Z,15.53
2019-03-31T05:26:02.539Z,18.47
2019-03-31T05:28:31.484Z,14.50
2019-03-31T05:31:00.445Z,15.63
2019-03-31T05:33:29.382Z,15.60
2019-03-31T05:35:58.291Z,14.90
2019-03-31T05:38:27.214Z,17.13
2019-03-31T05:40:56.162Z,14.97
2019-03-31T05:43:25.096Z,15.87
2019-03-31T05:45:53.962Z,13.47
2019-03-31T05:48:22.885Z,16.57
2019-03-31T05:50:51.733Z,16.73
2019-03-31T05:53:20.595Z,19.77
2019-03-31T05:55:49.557Z,17.63
2019-03-31T05:58:18.412Z,17.40
2019-03-31T06:00:47.485Z,13.90
2019-03-31T06:03:16.384Z,16.97
2019-03-31T06:05:45.325Z,16.73
2019-03-31T06:08:14.203Z,17.23
2019-03-31T06:10:43.165Z,17.17
2019-03-31T06:13:12.020Z,19.87
2019-03-31T06:15:40.903Z,21.50
2019-03-31T06:18:09.839Z,19.30
2019-03-31T06:20:38.784Z,17.07
2019-03-31T06:23:07.732Z,16.67
2019-03-31T06:25:36.585Z,19.37
2019-03-31T06:28:05.525Z,19.00
2019-03-31T06:30:34.410Z,18.87
2019-03-31T06:33:03.328Z,17.73
2019-03-31T06:35:32.263Z,18.03
2019-03-31T06:38:01.206Z,16.93
2019-03-31T06:40:30.119Z,17.90
2019-03-31T06:42:59.025Z,17.30
2019-03-31T06:45:27.884Z,19.53
2019-03-31T06:47:56.799Z,18.67
2019-03-31T06:50:25.661Z,18.10
2019-03-31T06:52:54.699Z,15.27
2019-03-31T06:55:25.005Z,18.13
2019-03-31T06:57:53.930Z,16.23
2019-03-31T07:00:22.852Z,18.77
2019-03-31T07:02:51.773Z,18.17
2019-03-31T07:05:20.793Z,19.77
2019-03-31T07:07:49.640Z,18.10
2019-03-31T07:10:18.870Z,17.80
2019-03-31T07:12:48.031Z,17.23
2019-03-31T07:15:16.959Z,16.37
2019-03-31T07:17:45.855Z,18.40
2019-03-31T07:20:16.712Z,16.17
2019-03-31T07:22:45.637Z,18.33
2019-03-31T07:25:15.324Z,17.47
2019-03-31T07:27:44.232Z,20.80
2019-03-31T07:30:18.007Z,19.20
2019-03-31T07:32:46.840Z,17.47
2019-03-31T07:35:18.617Z,17.43
2019-03-31T07:37:47.846Z,15.80
2019-03-31T07:40:20.002Z,16.80
2019-03-31T07:42:51.144Z,14.97
2019-03-31T07:45:19.920Z,15.13
2019-03-31T07:47:48.768Z,18.23
2019-03-31T07:50:18.797Z,15.00
2019-03-31T07:52:47.651Z,16.20
2019-03-31T07:55:17.083Z,15.70
2019-03-31T07:57:46.128Z,17.73
2019-03-31T08:00:17.920Z,17.20
2019-03-31T08:02:46.787Z,16.50
2019-03-31T08:05:15.819Z,16.27
2019-03-31T08:07:44.693Z,15.53
2019-03-31T08:10:14.519Z,16.07
2019-03-31T08:12:43.400Z,15.63
2019-03-31T08:15:13.105Z,16.53
2019-03-31T08:17:42.931Z,16.47
2019-03-31T08:20:14.312Z,19.13
2019-03-31T08:22:43.169Z,17.33
2019-03-31T08:25:14.144Z,15.63
2019-03-31T08:27:42.992Z,18.07
2019-03-31T08:30:14.156Z,15.47
2019-03-31T08:32:43.073Z,29.17
2019-03-31T08:35:12.363Z,23.43
2019-03-31T08:37:41.366Z,21.47
2019-03-31T08:40:12.200Z,17.17
2019-03-31T08:42:41.809Z,14.90
2019-03-31T08:45:10.994Z,15.20
2019-03-31T08:47:39.873Z,15.23
2019-03-31T08:50:09.891Z,15.00
2019-03-31T08:52:38.795Z,20.77
2019-03-31T08:55:07.812Z,15.70
2019-03-31T08:57:36.663Z,14.13
2019-03-31T09:00:08.640Z,16.33
2019-03-31T09:02:37.562Z,14.87
2019-03-31T09:05:09.003Z,14.50
2019-03-31T09:07:38.238Z,15.13
2019-03-31T09:10:09.369Z,15.97
2019-03-31T09:12:38.762Z,15.70
2019-03-31T09:15:09.097Z,13.37
2019-03-31T09:17:38.160Z,14.30
2019-03-31T09:20:09.140Z,15.47
2019-03-31T09:22:38.119Z,14.23
2019-03-31T09:25:07.434Z,16.17
2019-03-31T09:27:36.349Z,14.63
2019-03-31T09:30:11.152Z,16.07
2019-03-31T09:32:40.007Z,14.07
2019-03-31T09:35:11.448Z,15.80
2019-03-31T09:37:40.429Z,16.80
2019-03-31T09:40:11.213Z,14.57
2019-03-31T09:42:40.281Z,14.87
2019-03-31T09:45:10.274Z,16.07
2019-03-31T09:47:39.771Z,15.37
2019-03-31T09:50:11.615Z,13.17
2019-03-31T09:52:40.680Z,13.13
2019-03-31T09:55:10.183Z,15.37
2019-03-31T09:57:39.344Z,14.57
2019-03-31T10:00:11.489Z,16.13
2019-03-31T10:02:40.467Z,13.80
2019-03-31T10:05:10.618Z,13.00
2019-03-31T10:07:40.213Z,12.33
2019-03-31T10:10:32.775Z,18.27
2019-03-31T10:13:01.994Z,12.00
2019-03-31T10:15:30.865Z,23.10
2019-03-31T10:17:59.794Z,11.20
2019-03-31T10:20:31.457Z,14.97
2019-03-31T10:22:59.405Z,14.07
2019-03-31T10:25:31.635Z,16.60
2019-03-31T10:28:00.585Z,14.10
2019-03-31T10:30:39.712Z,12.57
2019-03-31T10:33:10.294Z,12.97
2019-03-31T10:35:39.447Z,13.77
2019-03-31T10:38:08.545Z,12.80
2019-03-31T10:40:37.435Z,14.10
2019-03-31T10:43:06.410Z,12.10
2019-03-31T10:45:35.283Z,42.23
2019-03-31T10:48:18.984Z,12.23
2019-03-31T10:50:35.014Z,11.17
2019-03-31T10:53:03.910Z,10.37
2019-03-31T10:55:32.883Z,10.37
2019-03-31T10:58:01.765Z,9.17
2019-03-31T11:00:38.012Z,11.37
2019-03-31T11:03:08.063Z,13.40
2019-03-31T11:05:37.201Z,10.73
2019-03-31T11:08:06.323Z,11.13
2019-03-31T11:10:35.708Z,12.57
2019-03-31T11:13:04.699Z,10.73
2019-03-31T11:15:33.672Z,10.53
2019-03-31T11:18:02.737Z,12.00
2019-03-31T11:20:31.710Z,10.33
2019-03-31T11:23:08.003Z,9.47
2019-03-31T11:25:36.882Z,13.00
2019-03-31T11:28:05.811Z,11.00
2019-03-31T11:30:34.794Z,12.07
2019-03-31T11:33:07.172Z,12.07
2019-03-31T11:35:34.189Z,10.37
2019-03-31T11:38:03.134Z,11.40
2019-03-31T11:40:31.957Z,10.63
2019-03-31T11:43:00.892Z,9.73
2019-03-31T11:45:29.846Z,11.07
2019-03-31T11:47:58.828Z,10.90
2019-03-31T11:50:27.649Z,10.40
2019-03-31T11:52:56.589Z,10.93
2019-03-31T11:55:25.499Z,8.87
2019-03-31T11:57:54.349Z,10.90
2019-03-31T12:00:25.141Z,9.33
2019-03-31T12:02:54.058Z,13.67
2019-03-31T12:05:23.009Z,10.30
2019-03-31T12:07:51.975Z,10.33
2019-03-31T12:10:20.844Z,11.30
2019-03-31T12:12:49.823Z,9.70
2019-03-31T12:15:18.650Z,8.27
2019-03-31T12:17:52.081Z,8.30
2019-03-31T12:20:21.011Z,10.10
2019-03-31T12:22:49.959Z,9.67
2019-03-31T12:25:20.045Z,9.47
2019-03-31T12:27:49.065Z,11.13
2019-03-31T12:30:20.883Z,12.57
2019-03-31T12:32:49.841Z,8.33
2019-03-31T12:35:18.737Z,15.20
2019-03-31T12:37:47.819Z,9.53
2019-03-31T12:40:28.901Z,9.17
2019-03-31T12:42:57.733Z,7.67
2019-03-31T12:45:26.675Z,11.10
2019-03-31T12:47:55.591Z,9.97
2019-03-31T12:50:24.509Z,11.97
2019-03-31T12:52:53.391Z,8.37
2019-03-31T12:55:22.302Z,10.83
2019-03-31T12:57:52.370Z,9.77
2019-03-31T13:00:21.496Z,9.70
2019-03-31T13:02:50.736Z,8.07
2019-03-31T13:05:19.770Z,8.63
2019-03-31T13:07:56.257Z,8.80
2019-03-31T13:10:19.674Z,10.70
2019-03-31T13:12:48.692Z,8.27
2019-03-31T13:15:17.584Z,9.33
2019-03-31T13:17:46.629Z,10.50
2019-03-31T13:20:15.629Z,8.40
2019-03-31T13:22:46.025Z,8.90
2019-03-31T13:25:15.229Z,9.80
2019-03-31T13:27:44.089Z,8.87
2019-03-31T13:30:14.925Z,8.90
2019-03-31T13:32:43.952Z,8.47
2019-03-31T13:35:13.209Z,8.60
2019-03-31T13:37:42.128Z,9.30
2019-03-31T13:40:12.106Z,7.77
2019-03-31T13:42:41.153Z,10.00
2019-03-31T13:45:10.233Z,8.93
2019-03-31T13:47:39.123Z,8.83
2019-03-31T13:50:08.849Z,10.13
2019-03-31T13:52:37.752Z,9.07
2019-03-31T13:55:09.812Z,7.57
2019-03-31T13:57:40.082Z,10.27
2019-03-31T14:00:11.129Z,8.03
2019-03-31T14:02:40.619Z,9.10
2019-03-31T14:05:09.960Z,8.83
2019-03-31T14:07:38.867Z,8.23
2019-03-31T14:10:07.947Z,8.10
2019-03-31T14:12:36.884Z,9.23
2019-03-31T14:15:18.358Z,7.67
2019-03-31T14:17:38.783Z,8.20
2019-03-31T14:20:08.256Z,7.73
2019-03-31T14:22:37.127Z,9.63
2019-03-31T14:25:06.858Z,8.60
2019-03-31T14:27:35.840Z,11.33
2019-03-31T14:30:06.307Z,8.73
2019-03-31T14:32:35.167Z,10.23
2019-03-31T14:35:04.728Z,8.73
2019-03-31T14:37:33.864Z,9.97
2019-03-31T14:40:03.004Z,8.90
2019-03-31T14:42:31.889Z,10.13
2019-03-31T14:45:00.841Z,10.13
2019-03-31T14:47:29.826Z,9.63
2019-03-31T14:49:58.731Z,8.10
2019-03-31T14:52:28.063Z,12.03
2019-03-31T14:54:56.997Z,11.77
2019-03-31T14:57:25.971Z,6.90
2019-03-31T14:59:54.892Z,9.40
2019-03-31T15:02:23.752Z,8.67
2019-03-31T15:04:53.913Z,9.33
2019-03-31T15:07:22.765Z,10.27
2019-03-31T15:09:51.684Z,9.57
2019-03-31T15:12:20.593Z,10.10
2019-03-31T15:14:49.554Z,8.17
2019-03-31T15:17:18.501Z,8.70
2019-03-31T15:19:47.353Z,10.90
2019-03-31T15:22:16.279Z,7.83
2019-03-31T15:24:45.156Z,8.97
2019-03-31T15:27:14.050Z,8.43
2019-03-31T15:29:43.031Z,8.60
2019-03-31T15:32:11.880Z,7.53
2019-03-31T15:34:40.759Z,8.83
2019-03-31T15:37:09.672Z,9.40
2019-03-31T15:39:38.611Z,11.70
2019-03-31T15:42:07.660Z,8.27
2019-03-31T15:44:36.738Z,9.70
2019-03-31T15:47:05.773Z,9.43
2019-03-31T15:49:34.765Z,11.10
2019-03-31T15:52:03.786Z,8.27
2019-03-31T15:54:32.664Z,10.80
2019-03-31T15:57:04.384Z,8.83
2019-03-31T15:59:33.354Z,8.57
2019-03-31T16:02:02.413Z,7.03
2019-03-31T16:04:31.373Z,7.47
2019-03-31T16:07:00.431Z,8.10
2019-03-31T16:09:29.377Z,8.10
2019-03-31T16:11:58.306Z,9.90
2019-03-31T16:14:27.292Z,7.63
2019-03-31T16:16:56.139Z,7.40
2019-03-31T16:19:25.093Z,9.43
2019-03-31T16:21:54.150Z,7.10
2019-03-31T16:24:24.592Z,10.87
2019-03-31T16:26:53.508Z,7.17
2019-03-31T16:29:22.394Z,9.17
2019-03-31T16:31:51.277Z,6.07
2019-03-31T16:34:20.131Z,8.67
2019-03-31T16:36:49.040Z,6.17
2019-03-31T16:39:17.912Z,7.00
2019-03-31T16:41:48.390Z,6.43
2019-03-31T16:44:17.232Z,5.33
2019-03-31T16:46:47.907Z,5.23
2019-03-31T16:49:17.092Z,9.83
2019-03-31T16:51:45.999Z,7.20
2019-03-31T16:54:15.119Z,5.00
2019-03-31T16:56:43.983Z,8.37
2019-03-31T16:59:13.014Z,6.87
2019-03-31T17:01:42.045Z,10.30
2019-03-31T17:04:10.896Z,10.10
2019-03-31T17:06:39.918Z,19.83
2019-03-31T17:09:08.763Z,8.50
2019-03-31T17:11:37.734Z,5.97
2019-03-31T17:14:06.658Z,10.80
2019-03-31T17:16:35.669Z,8.57
2019-03-31T17:19:04.820Z,5.27
2019-03-31T17:21:33.685Z,9.23
2019-03-31T17:24:02.838Z,6.50
2019-03-31T17:26:31.813Z,12.57
2019-03-31T17:29:00.765Z,9.47
2019-03-31T17:31:29.792Z,9.07
2019-03-31T17:34:00.224Z,13.47
2019-03-31T17:36:29.282Z,9.17
2019-03-31T17:38:58.180Z,9.27
2019-03-31T17:41:27.210Z,6.43
2019-03-31T17:43:56.339Z,6.47
2019-03-31T17:46:25.218Z,5.30
2019-03-31T17:48:54.397Z,10.60
2019-03-31T17:51:23.405Z,10.50
2019-03-31T17:53:52.484Z,6.90
2019-03-31T17:56:21.330Z,7.57
2019-03-31T17:58:50.264Z,5.93
2019-03-31T18:01:19.217Z,6.33
2019-03-31T18:03:48.102Z,6.00
2019-03-31T18:06:16.999Z,5.00
2019-03-31T18:08:45.975Z,5.20
2019-03-31T18:11:14.935Z,8.27
2019-03-31T18:13:43.837Z,7.43
2019-03-31T18:16:12.794Z,10.27
2019-03-31T18:18:41.664Z,8.67
2019-03-31T18:21:11.227Z,5.47
2019-03-31T18:23:40.132Z,7.43
2019-03-31T18:26:09.219Z,9.43
2019-03-31T18:28:38.243Z,7.97
2019-03-31T18:31:07.313Z,5.37
2019-03-31T18:33:36.331Z,6.63
2019-03-31T18:36:05.424Z,8.60
2019-03-31T18:38:34.365Z,6.73
2019-03-31T18:41:03.778Z,5.80
2019-03-31T18:43:32.916Z,8.10
2019-03-31T18:46:02.120Z,6.07
2019-03-31T18:48:31.247Z,9.63
2019-03-31T18:51:00.275Z,7.33
2019-03-31T18:53:30.822Z,7.20
2019-03-31T18:56:17.509Z,12.53
2019-03-31T18:59:00.324Z,6.67
2019-03-31T19:01:42.709Z,9.80
2019-03-31T19:04:31.330Z,9.20
2019-03-31T19:07:08.915Z,9.03
2019-03-31T19:09:48.328Z,8.87
2019-03-31T19:12:24.914Z,7.53
2019-03-31T19:15:01.380Z,9.73
2019-03-31T19:17:31.962Z,8.87
2019-03-31T19:20:06.786Z,8.40
2019-03-31T19:22:53.753Z,7.43
2019-03-31T19:25:30.422Z,7.87
2019-03-31T19:28:02.309Z,6.37
2019-03-31T19:30:45.272Z,9.97
2019-03-31T19:33:21.975Z,7.13
2019-03-31T19:36:01.766Z,9.00
2019-03-31T19:38:35.504Z,7.03
2019-03-31T19:41:12.278Z,12.80
2019-03-31T19:43:54.683Z,13.83
2019-03-31T19:46:25.310Z,10.17
2019-03-31T19:48:55.820Z,11.60
2019-03-31T19:51:26.502Z,13.90
2019-03-31T19:53:57.087Z,14.47
2019-03-31T19:56:30.679Z,17.10
2019-03-31T19:59:10.199Z,11.93
2019-03-31T20:01:43.665Z,11.13
2019-03-31T20:04:26.069Z,11.53
2019-03-31T20:07:02.166Z,11.53
2019-03-31T20:09:35.499Z,8.67
2019-03-31T20:12:12.259Z,10.43
2019-03-31T20:15:00.768Z,11.30
2019-03-31T20:17:31.273Z,8.23
2019-03-31T20:20:04.128Z,10.93
2019-03-31T20:22:52.753Z,8.87
2019-03-31T20:25:23.225Z,7.60
2019-03-31T20:28:05.988Z,8.40
2019-03-31T20:30:42.619Z,8.13
2019-03-31T20:33:19.442Z,8.97
2019-03-31T20:36:02.255Z,8.77
2019-03-31T20:38:47.909Z,10.47
2019-03-31T20:41:27.725Z,9.40
2019-03-31T20:43:57.128Z,11.13
2019-03-31T20:46:26.149Z,9.27
2019-03-31T20:48:55.233Z,8.07
2019-03-31T20:51:24.162Z,9.33
2019-03-31T20:53:53.080Z,8.00
2019-03-31T20:56:22.198Z,20.27
2019-03-31T20:58:51.142Z,10.13
2019-03-31T21:01:20.113Z,9.40
2019-03-31T21:03:49.045Z,10.33
2019-03-31T21:06:18.050Z,7.83
2019-03-31T21:08:46.892Z,8.00
2019-03-31T21:11:15.940Z,9.37
2019-03-31T21:13:44.816Z,9.17
2019-03-31T21:16:13.728Z,8.53
2019-03-31T21:18:42.725Z,8.83
2019-03-31T21:21:11.584Z,9.63
2019-03-31T21:23:40.566Z,9.57
2019-03-31T21:26:09.483Z,11.10
2019-03-31T21:28:38.396Z,13.63
2019-03-31T21:31:07.299Z,9.50
2019-03-31T21:33:36.230Z,11.30
2019-03-31T21:36:05.070Z,10.77
2019-03-31T21:38:33.979Z,13.57
2019-03-31T21:41:02.834Z,11.30
2019-03-31T21:43:31.739Z,17.37
2019-03-31T21:46:00.599Z,16.17
2019-03-31T21:48:29.503Z,12.47
2019-03-31T21:50:58.494Z,14.20
2019-03-31T21:53:27.360Z,14.93
2019-03-31T21:55:56.648Z,17.10
2019-03-31T21:58:25.485Z,21.30
2019-03-31T22:00:57.091Z,16.83
2019-03-31T22:03:25.964Z,17.33
2019-03-31T22:05:54.946Z,17.13
2019-03-31T22:08:23.839Z,20.70
2019-03-31T22:10:52.715Z,20.30
2019-03-31T22:13:21.632Z,22.07
2019-03-31T22:15:50.573Z,26.43
2019-03-31T22:18:21.490Z,25.83
2019-03-31T22:20:50.353Z,24.03
2019-03-31T22:23:19.281Z,20.43
2019-03-31T22:25:48.179Z,42.70
2019-03-31T22:28:17.073Z,20.70
2019-03-31T22:30:46.008Z,20.43
2019-03-31T22:33:14.923Z,24.93
2019-03-31T22:35:45.397Z,29.20
2019-03-31T22:38:14.309Z,26.03
2019-03-31T22:40:43.176Z,25.57
2019-03-31T22:43:12.129Z,35.87
2019-03-31T22:45:40.944Z,28.83
2019-03-31T22:48:09.897Z,30.70
2019-03-31T22:50:38.856Z,27.17
2019-03-31T22:53:07.774Z,28.47
2019-03-31T22:55:36.697Z,27.17
2019-03-31T22:58:05.612Z,31.23
2019-03-31T23:00:34.554Z,31.17
2019-03-31T23:03:03.498Z,27.20
2019-03-31T23:05:32.447Z,26.43
2019-03-31T23:08:01.328Z,23.57
2019-03-31T23:10:30.276Z,26.87
2019-03-31T23:12:59.212Z,30.37
2019-03-31T23:15:28.177Z,27.33
2019-03-31T23:17:57.026Z,25.53
2019-03-31T23:20:25.977Z,30.63
2019-03-31T23:22:54.838Z,23.37
2019-03-31T23:25:23.733Z,26.20
2019-03-31T23:27:52.613Z,27.47
2019-03-31T23:30:21.535Z,25.70
2019-03-31T23:32:50.420Z,26.27
2019-03-31T23:35:19.417Z,27.90
2019-03-31T23:37:48.358Z,28.23
2019-03-31T23:40:17.211Z,29.87
2019-03-31T23:42:46.138Z,26.80
2019-03-31T23:45:15.080Z,25.87
2019-03-31T23:47:44.078Z,26.67
2019-03-31T23:50:13.089Z,28.13
2019-03-31T23:52:41.933Z,26.97
2019-03-31T23:55:10.936Z,27.40
2019-03-31T23:57:49.206Z,26.10
